createdAt,value
2023-04-28T00:21:32.514Z,84.36
2023-04-28T00:55:22.282Z,86.12
2023-04-28T00:59:09.682Z,86.27
2023-04-28T01:02:30.887Z,86.46
2023-04-28T01:06:48.823Z,86.59
2023-04-28T01:13:08.751Z,86.73
2023-04-28T01:34:24.674Z,87.18
2023-04-28T01:42:01.181Z,87.54
2023-04-28T01:44:55.489Z,87.88
2023-04-28T01:47:44.053Z,87.93
2023-04-28T01:51:21.319Z,87.60
2023-04-28T01:54:18.869Z,87.68
2023-04-28T01:57:17.502Z,87.80
2023-04-28T02:00:17.338Z,87.74
2023-04-28T02:03:22.761Z,87.83
2023-04-28T02:06:43.948Z,87.66
2023-04-28T02:10:00.530Z,87.75
2023-04-28T02:13:40.500Z,88.12
2023-04-28T02:17:32.519Z,88.37
2023-04-28T02:34:01.962Z,88.49
2023-04-28T02:46:22.021Z,88.30
2023-04-28T02:49:46.496Z,88.64
2023-04-28T02:53:32.517Z,88.79
2023-04-28T02:56:55.994Z,88.94
2023-04-28T03:00:25.762Z,89.25
2023-04-28T03:07:52.682Z,89.48
2023-04-28T03:33:03.724Z,91.14
2023-04-28T03:36:19.786Z,91.74
2023-04-28T03:42:32.902Z,91.91
2023-04-28T03:45:44.832Z,91.89
2023-04-28T03:48:58.157Z,91.75
2023-04-28T03:51:57.117Z,91.75
2023-04-28T03:59:36.951Z,92.61
2023-04-28T04:16:13.862Z,92.28
2023-04-28T04:19:57.348Z,92.31
2023-04-28T04:26:52.451Z,92.44
2023-04-28T04:29:40.412Z,92.45
2023-04-28T04:32:28.764Z,92.44
2023-04-28T04:35:19.110Z,92.49
2023-04-28T04:38:07.917Z,92.49
2023-04-28T04:49:35.245Z,91.64
2023-04-28T04:52:35.625Z,91.22
2023-04-28T04:55:37.221Z,90.97
2023-04-28T05:03:39.248Z,90.48
2023-04-28T05:06:28.310Z,90.16
2023-04-28T05:09:59.231Z,89.86
2023-04-28T05:13:03.732Z,89.05
2023-04-28T05:16:22.758Z,88.14
2023-04-28T05:22:21.392Z,87.27
2023-04-28T05:25:18.823Z,86.95
2023-04-28T05:39:57.526Z,85.07
2023-04-28T05:46:45.987Z,84.71
2023-04-28T06:33:13.038Z,76.23
2023-04-28T06:36:12.805Z,76.41
2023-04-28T06:39:04.885Z,74.94
2023-04-28T06:42:16.453Z,75.32
2023-04-28T06:45:08.166Z,74.98
2023-04-28T06:47:54.387Z,72.87
2023-04-28T06:50:28.331Z,71.75
2023-04-28T06:53:22.130Z,72.75
2023-04-28T06:56:13.891Z,71.90
2023-04-28T06:59:07.916Z,70.35
2023-04-28T07:02:00.896Z,65.91
2023-04-28T07:09:09.716Z,66.19
2023-04-28T07:11:37.073Z,66.28
2023-04-28T07:14:04.173Z,65.80
2023-04-28T07:16:32.828Z,65.27
2023-04-28T07:19:00.351Z,65.53
2023-04-28T07:21:27.948Z,65.27
2023-04-28T07:23:56.668Z,64.74
2023-04-28T07:26:23.973Z,63.21
2023-04-28T07:28:51.539Z,62.68
2023-04-28T07:31:18.646Z,62.25
2023-04-28T07:33:46.017Z,60.11
2023-04-28T07:36:13.220Z,59.48
2023-04-28T07:38:41.092Z,59.52
2023-04-28T07:41:10.991Z,60.14
2023-04-28T07:43:39.470Z,60.33
2023-04-28T07:46:08.592Z,58.25
2023-04-28T07:48:37.562Z,56.86
2023-04-28T07:51:05.475Z,56.46
2023-04-28T07:53:36.089Z,55.32
2023-04-28T07:56:04.604Z,54.21
2023-04-28T07:58:32.149Z,50.93
2023-04-28T08:01:07.182Z,48.65
2023-04-28T08:03:35.684Z,50.35
2023-04-28T08:06:03.550Z,51.28
2023-04-28T08:08:31.233Z,49.40
2023-04-28T08:10:58.817Z,46.50
2023-04-28T08:13:27.766Z,47.24
2023-04-28T08:15:59.964Z,50.39
2023-04-28T08:18:28.278Z,49.98
2023-04-28T08:20:55.341Z,48.81
2023-04-28T08:23:22.376Z,49.68
2023-04-28T08:25:50.163Z,48.45
2023-04-28T08:28:17.373Z,47.18
2023-04-28T08:30:45.029Z,47.74
2023-04-28T08:33:13.812Z,47.10
2023-04-28T08:35:41.157Z,46.93
2023-04-28T08:38:13.990Z,43.21
2023-04-28T08:40:43.124Z,44.52
2023-04-28T08:43:15.612Z,46.60
2023-04-28T08:45:45.816Z,45.67
2023-04-28T08:48:23.692Z,44.87
2023-04-28T08:50:54.866Z,46.73
2023-04-28T08:53:28.102Z,46.66
2023-04-28T08:55:58.026Z,44.68
2023-04-28T08:58:28.328Z,44.23
2023-04-28T09:00:55.777Z,45.26
2023-04-28T09:03:24.693Z,45.96
2023-04-28T09:05:53.766Z,46.30
2023-04-28T09:08:23.205Z,46.77
2023-04-28T09:11:08.955Z,45.54
2023-04-28T09:13:36.787Z,45.24
2023-04-28T09:16:04.812Z,45.57
2023-04-28T09:18:35.792Z,46.10
2023-04-28T09:21:09.009Z,46.79
2023-04-28T09:23:48.773Z,46.76
2023-04-28T09:26:16.443Z,46.62
2023-04-28T09:28:44.054Z,46.92
2023-04-28T09:31:27.602Z,46.41
2023-04-28T09:34:00.109Z,46.36
2023-04-28T09:36:31.142Z,45.78
2023-04-28T09:39:01.372Z,45.61
2023-04-28T09:41:45.286Z,42.56
2023-04-28T09:44:18.619Z,42.30
2023-04-28T09:46:47.716Z,40.18
2023-04-28T09:49:15.073Z,40.23
2023-04-28T09:51:42.320Z,41.24
2023-04-28T09:54:11.270Z,42.48
2023-04-28T09:56:41.200Z,42.66
2023-04-28T09:59:08.687Z,41.22
2023-04-28T10:01:41.542Z,40.73
2023-04-28T10:04:11.841Z,42.16
2023-04-28T10:06:40.115Z,43.07
2023-04-28T10:09:08.117Z,43.43
2023-04-28T10:11:37.133Z,43.92
2023-04-28T10:14:04.903Z,41.75
2023-04-28T10:16:33.028Z,42.57
2023-04-28T10:19:02.841Z,41.02
2023-04-28T10:21:35.462Z,40.67
2023-04-28T10:24:14.684Z,38.54
2023-04-28T10:27:06.244Z,38.70
2023-04-28T10:29:34.696Z,37.14
2023-04-28T10:32:28.747Z,36.35
2023-04-28T10:35:22.213Z,36.58
2023-04-28T10:38:11.378Z,37.11
2023-04-28T10:40:43.012Z,35.75
2023-04-28T10:43:13.862Z,35.47
2023-04-28T10:45:56.132Z,35.74
2023-04-28T10:48:30.795Z,36.50
2023-04-28T10:51:06.889Z,37.16
2023-04-28T10:53:46.781Z,36.83
2023-04-28T10:56:25.154Z,36.48
2023-04-28T10:58:53.667Z,36.77
2023-04-28T11:01:20.950Z,37.96
2023-04-28T11:03:53.773Z,36.91
2023-04-28T11:06:32.031Z,36.62
2023-04-28T11:09:03.730Z,37.07
2023-04-28T11:11:38.638Z,36.08
2023-04-28T11:14:18.102Z,34.53
2023-04-28T11:16:55.155Z,35.29
2023-04-28T11:19:28.122Z,35.19
2023-04-28T11:22:00.898Z,34.57
2023-04-28T11:24:29.327Z,32.21
2023-04-28T11:27:00.629Z,32.21
2023-04-28T11:29:37.510Z,32.93
2023-04-28T11:32:06.322Z,34.60
2023-04-28T11:34:34.320Z,35.67
2023-04-28T11:37:02.025Z,34.76
2023-04-28T11:39:31.542Z,32.78
2023-04-28T11:42:00.190Z,34.10
2023-04-28T11:44:29.145Z,32.56
2023-04-28T11:47:02.225Z,31.39
2023-04-28T11:49:42.800Z,28.17
2023-04-28T11:52:10.651Z,29.78
2023-04-28T11:54:38.429Z,29.51
2023-04-28T11:57:06.193Z,29.45
2023-04-28T11:59:37.705Z,29.27
2023-04-28T12:02:07.360Z,29.63
2023-04-28T12:04:38.101Z,30.81
2023-04-28T12:07:16.479Z,29.98
2023-04-28T12:09:49.261Z,31.89
2023-04-28T12:12:45.044Z,31.83
2023-04-28T12:15:18.810Z,31.41
2023-04-28T12:17:47.958Z,32.39
2023-04-28T12:20:35.985Z,33.47
2023-04-28T12:23:09.120Z,32.42
2023-04-28T12:28:39.445Z,32.89
2023-04-28T12:31:10.957Z,33.39
2023-04-28T12:33:39.016Z,33.79
2023-04-28T12:36:07.244Z,33.95
2023-04-28T12:38:37.431Z,33.34
2023-04-28T12:41:04.568Z,33.69
2023-04-28T12:43:31.711Z,32.30
2023-04-28T12:46:00.026Z,30.85
2023-04-28T12:48:27.688Z,30.47
2023-04-28T12:50:54.845Z,30.64
2023-04-28T12:53:21.991Z,30.44
2023-04-28T12:55:49.045Z,30.35
2023-04-28T12:58:17.456Z,30.80
2023-04-28T13:00:44.685Z,30.27
2023-04-28T13:03:12.049Z,30.37
2023-04-28T13:05:51.799Z,31.54
2023-04-28T13:12:36.984Z,31.25
2023-04-28T13:15:04.590Z,31.05
2023-04-28T13:17:31.743Z,31.05
2023-04-28T13:19:58.915Z,30.62
2023-04-28T13:22:26.010Z,30.43
2023-04-28T13:24:53.765Z,30.73
2023-04-28T13:27:20.910Z,30.86
2023-04-28T13:29:48.174Z,29.82
2023-04-28T13:32:15.521Z,31.07
2023-04-28T13:34:42.646Z,31.77
2023-04-28T13:37:10.199Z,31.84
2023-04-28T13:39:37.501Z,33.21
2023-04-28T13:42:05.615Z,33.06
2023-04-28T13:44:32.520Z,33.73
2023-04-28T13:47:00.635Z,34.28
2023-04-28T13:49:28.507Z,33.23
2023-04-28T13:51:56.072Z,33.20
2023-04-28T13:54:23.089Z,33.72
2023-04-28T13:56:50.876Z,34.23
2023-04-28T13:59:18.914Z,34.37
2023-04-28T14:01:46.035Z,33.58
2023-04-28T14:04:13.377Z,33.30
2023-04-28T14:06:41.847Z,33.48
2023-04-28T14:09:09.429Z,33.76
2023-04-28T14:11:36.398Z,34.16
2023-04-28T14:14:04.425Z,34.88
2023-04-28T14:16:31.488Z,35.45
2023-04-28T14:18:59.018Z,35.71
2023-04-28T14:21:26.274Z,36.12
2023-04-28T14:23:53.229Z,35.37
2023-04-28T14:26:20.458Z,35.43
2023-04-28T14:28:47.512Z,34.38
2023-04-28T14:31:14.627Z,34.26
2023-04-28T14:33:41.797Z,33.35
2023-04-28T14:36:08.860Z,34.22
2023-04-28T14:38:38.196Z,33.62
2023-04-28T14:41:05.888Z,34.00
2023-04-28T14:43:33.431Z,34.47
2023-04-28T14:46:00.417Z,35.45
2023-04-28T14:48:27.598Z,34.92
2023-04-28T14:50:54.629Z,34.22
2023-04-28T14:53:22.023Z,33.99
2023-04-28T14:55:49.348Z,34.98
2023-04-28T14:58:16.288Z,35.98
2023-04-28T15:00:43.942Z,35.91
2023-04-28T15:03:11.209Z,36.18
2023-04-28T15:05:38.958Z,35.28
2023-04-28T15:12:25.295Z,35.43
2023-04-28T15:14:53.372Z,36.03
2023-04-28T15:17:21.146Z,35.67
2023-04-28T15:19:49.069Z,36.59
2023-04-28T15:22:16.633Z,36.36
2023-04-28T15:24:43.680Z,36.45
2023-04-28T15:27:11.156Z,36.78
2023-04-28T15:29:38.760Z,36.89
2023-04-28T15:32:08.860Z,37.26
2023-04-28T15:34:36.674Z,36.88
2023-04-28T15:37:26.837Z,37.11
2023-04-28T15:39:53.981Z,37.26
2023-04-28T15:42:21.330Z,37.63
2023-04-28T15:44:49.787Z,37.47
2023-04-28T15:47:17.956Z,37.47
2023-04-28T15:49:45.345Z,37.70
2023-04-28T15:52:12.780Z,37.74
2023-04-28T15:54:40.378Z,37.42
2023-04-28T15:57:07.899Z,37.79
2023-04-28T15:59:35.552Z,37.84
2023-04-28T16:02:03.128Z,38.50
2023-04-28T16:04:30.880Z,38.48
2023-04-28T16:07:01.989Z,38.87
2023-04-28T16:09:29.346Z,39.56
2023-04-28T16:11:59.103Z,40.18
2023-04-28T16:14:27.797Z,39.69
2023-04-28T16:16:56.608Z,39.56
2023-04-28T16:19:25.717Z,39.54
2023-04-28T16:21:54.276Z,39.87
2023-04-28T16:24:22.159Z,40.18
2023-04-28T16:26:50.816Z,39.87
2023-04-28T16:29:18.268Z,39.11
2023-04-28T16:31:45.617Z,39.62
2023-04-28T16:34:13.183Z,39.79
2023-04-28T16:36:42.611Z,39.81
2023-04-28T16:39:10.532Z,39.23
2023-04-28T16:41:38.304Z,39.66
2023-04-28T16:44:05.681Z,39.68
2023-04-28T16:46:33.063Z,40.00
2023-04-28T16:53:24.626Z,40.79
2023-04-28T16:55:51.864Z,40.87
2023-04-28T16:58:19.433Z,40.82
2023-04-28T17:00:46.856Z,41.43
2023-04-28T17:03:14.199Z,41.44
2023-04-28T17:05:42.333Z,41.50
2023-04-28T17:08:10.394Z,41.47
2023-04-28T17:10:38.148Z,41.81
2023-04-28T17:13:08.901Z,42.70
2023-04-28T17:15:39.736Z,43.03
2023-04-28T17:18:10.353Z,43.23
2023-04-28T17:20:41.351Z,43.07
2023-04-28T17:23:11.465Z,43.34
2023-04-28T17:25:44.078Z,43.46
2023-04-28T17:28:14.405Z,43.59
2023-04-28T17:30:47.101Z,44.32
2023-04-28T17:33:17.728Z,44.68
2023-04-28T17:35:47.452Z,44.66
2023-04-28T17:38:16.381Z,44.59
2023-04-28T17:40:48.419Z,44.90
2023-04-28T17:43:20.477Z,45.29
2023-04-28T17:45:51.389Z,45.58
2023-04-28T17:48:24.424Z,45.63
2023-04-28T17:50:54.867Z,45.83
2023-04-28T17:53:27.093Z,46.00
2023-04-28T17:55:56.413Z,46.37
2023-04-28T17:58:25.369Z,46.58
2023-04-28T18:01:08.463Z,46.54
2023-04-28T18:03:39.475Z,46.46
2023-04-28T18:06:08.474Z,46.48
2023-04-28T18:08:38.479Z,46.89
2023-04-28T18:11:09.776Z,47.35
